createdAt,value
2022-08-07T00:00:41.043Z,17.49
2022-08-07T00:02:35.557Z,17.49
2022-08-07T00:02:44.758Z,17.51
2022-08-07T00:03:41.030Z,17.53
2022-08-07T00:04:41.076Z,17.54
2022-08-07T00:05:41.000Z,17.55
2022-08-07T00:06:51.267Z,17.58
2022-08-07T00:07:41.749Z,17.63
2022-08-07T00:08:44.317Z,17.65
2022-08-07T00:09:40.960Z,17.70
2022-08-07T00:10:47.963Z,17.73
2022-08-07T00:11:53.979Z,17.74
2022-08-07T00:12:43.734Z,17.73
2022-08-07T00:13:44.824Z,17.70
2022-08-07T00:14:40.907Z,17.70
2022-08-07T00:15:46.884Z,17.66
2022-08-07T00:16:40.879Z,17.63
2022-08-07T00:17:40.872Z,17.63
2022-08-07T00:18:40.853Z,17.57
2022-08-07T00:20:02.497Z,17.53
2022-08-07T00:20:40.830Z,17.47
2022-08-07T00:21:57.155Z,17.46
2022-08-07T00:22:40.809Z,17.40
2022-08-07T00:23:40.797Z,17.38
2022-08-07T00:24:40.796Z,17.38
2022-08-07T00:25:41.493Z,17.39
2022-08-07T00:26:59.193Z,17.39
2022-08-07T00:27:52.470Z,17.42
2022-08-07T00:28:45.670Z,17.40
2022-08-07T00:29:40.758Z,17.42
2022-08-07T00:30:40.717Z,17.42
2022-08-07T00:31:41.619Z,17.42
2022-08-07T00:32:40.692Z,17.42
2022-08-07T00:33:40.693Z,17.40
2022-08-07T00:34:40.693Z,17.40
2022-08-07T00:35:40.670Z,17.39
2022-08-07T00:36:42.685Z,17.38
2022-08-07T00:37:47.830Z,17.35
2022-08-07T00:38:40.649Z,17.33
2022-08-07T00:39:44.943Z,17.32
2022-08-07T00:40:40.902Z,17.33
2022-08-07T00:41:45.399Z,17.33
2022-08-07T00:42:40.598Z,17.33
2022-08-07T00:44:01.081Z,17.32
2022-08-07T00:44:41.484Z,17.32
2022-08-07T00:45:40.571Z,17.30
2022-08-07T00:46:40.548Z,17.28
2022-08-07T00:48:08.373Z,17.22
2022-08-07T00:48:42.394Z,17.20
2022-08-07T00:50:19.951Z,17.18
2022-08-07T00:50:51.207Z,17.15
2022-08-07T00:51:57.616Z,17.12
2022-08-07T00:52:40.489Z,17.10
2022-08-07T00:53:50.213Z,17.10
2022-08-07T00:54:40.612Z,17.12
2022-08-07T00:56:02.846Z,17.10
2022-08-07T00:56:40.449Z,17.10
2022-08-07T00:57:44.450Z,17.10
2022-08-07T00:58:40.431Z,17.12
2022-08-07T00:59:40.435Z,17.10
2022-08-07T01:00:53.394Z,17.10
2022-08-07T01:01:44.046Z,17.06
2022-08-07T01:02:40.379Z,17.02
2022-08-07T01:03:55.894Z,16.96
2022-08-07T01:04:43.039Z,16.90
2022-08-07T01:05:40.352Z,16.87
2022-08-07T01:06:40.342Z,16.84
2022-08-07T01:07:40.329Z,16.80
2022-08-07T01:08:41.778Z,16.73
2022-08-07T01:10:05.289Z,16.67
2022-08-07T01:10:40.296Z,16.66
2022-08-07T01:12:08.978Z,16.62
2022-08-07T01:12:43.936Z,16.62
2022-08-07T01:13:40.271Z,16.60
2022-08-07T01:14:40.270Z,16.59
2022-08-07T01:16:01.045Z,16.57
2022-08-07T01:16:43.115Z,16.55
2022-08-07T01:17:40.228Z,16.51
2022-08-07T01:18:40.206Z,16.47
2022-08-07T01:19:42.024Z,16.47
2022-08-07T01:20:43.209Z,16.44
2022-08-07T01:21:40.187Z,16.42
2022-08-07T01:22:46.953Z,16.41
2022-08-07T01:23:43.772Z,16.40
2022-08-07T01:24:40.173Z,16.37
2022-08-07T01:25:55.605Z,16.34
2022-08-07T01:26:40.129Z,16.32
2022-08-07T01:27:50.023Z,16.29
2022-08-07T01:28:40.114Z,16.27
2022-08-07T01:29:40.118Z,16.29
2022-08-07T01:30:40.082Z,16.29
2022-08-07T01:31:42.465Z,16.30
2022-08-07T01:32:40.064Z,16.34
2022-08-07T01:33:53.999Z,16.40
2022-08-07T01:34:40.071Z,16.47
2022-08-07T01:35:54.401Z,16.52
2022-08-07T01:36:40.412Z,16.55
2022-08-07T01:37:40.012Z,16.54
2022-08-07T01:38:40.014Z,16.52
2022-08-07T01:39:41.480Z,16.54
2022-08-07T01:40:39.979Z,16.52
2022-08-07T01:41:40.774Z,16.51
2022-08-07T01:42:57.322Z,16.50
2022-08-07T01:43:39.962Z,16.47
2022-08-07T01:44:39.956Z,16.42
2022-08-07T01:45:40.276Z,16.40
2022-08-07T01:46:40.065Z,16.34
2022-08-07T01:48:19.928Z,16.33
2022-08-07T01:48:40.982Z,16.30
2022-08-07T01:49:39.905Z,16.29
2022-08-07T01:50:40.336Z,16.33
2022-08-07T01:52:01.843Z,16.36
2022-08-07T01:52:40.755Z,16.40
2022-08-07T01:54:12.031Z,16.40
2022-08-07T01:54:39.845Z,16.41
2022-08-07T01:55:39.825Z,16.42
2022-08-07T01:56:39.805Z,16.41
2022-08-07T01:58:06.318Z,16.40
2022-08-07T01:58:40.988Z,16.42
2022-08-07T01:59:39.997Z,16.41
2022-08-07T02:00:49.341Z,16.41
2022-08-07T02:02:00.190Z,16.37
2022-08-07T02:03:18.486Z,16.34
2022-08-07T02:03:48.609Z,16.27
2022-08-07T02:04:39.747Z,16.26
2022-08-07T02:05:43.167Z,16.23
2022-08-07T02:06:39.706Z,16.22
2022-08-07T02:07:50.608Z,16.16
2022-08-07T02:08:39.690Z,16.08
2022-08-07T02:09:52.884Z,16.06
2022-08-07T02:10:42.189Z,15.98
2022-08-07T02:12:03.391Z,15.93
2022-08-07T02:12:39.641Z,15.91
2022-08-07T02:13:58.088Z,15.86
2022-08-07T02:14:40.943Z,15.86
2022-08-07T02:15:39.609Z,15.78
2022-08-07T02:16:39.594Z,15.78
2022-08-07T02:17:39.586Z,15.80
2022-08-07T02:18:47.095Z,15.81
2022-08-07T02:20:04.851Z,15.88
2022-08-07T02:20:39.558Z,15.89
2022-08-07T02:21:56.636Z,15.95
2022-08-07T02:22:41.501Z,15.99
2022-08-07T02:23:39.525Z,16.03
2022-08-07T02:24:39.529Z,16.04
2022-08-07T02:26:31.411Z,16.04
2022-08-07T02:26:39.494Z,16.04
2022-08-07T02:27:41.178Z,16.03
2022-08-07T02:28:39.467Z,16.06
2022-08-07T02:29:48.770Z,16.07
2022-08-07T02:30:39.449Z,16.11
2022-08-07T02:31:39.439Z,16.13
2022-08-07T02:33:00.426Z,16.14
2022-08-07T02:33:57.507Z,16.13
2022-08-07T02:34:39.436Z,16.11
2022-08-07T02:36:29.323Z,16.11
2022-08-07T02:36:39.385Z,16.14
2022-08-07T02:37:43.829Z,16.16
2022-08-07T02:38:39.358Z,16.14
2022-08-07T02:39:43.979Z,16.17
2022-08-07T02:40:39.373Z,16.22
2022-08-07T02:41:39.454Z,16.26
2022-08-07T02:42:39.329Z,16.27
2022-08-07T02:43:39.682Z,16.27
2022-08-07T02:44:39.315Z,16.29
2022-08-07T02:45:59.057Z,16.23
2022-08-07T02:46:46.845Z,16.23
2022-08-07T02:47:45.241Z,16.22
2022-08-07T02:48:39.257Z,16.17
2022-08-07T02:49:58.431Z,16.16
2022-08-07T02:50:39.238Z,16.13
2022-08-07T02:51:42.314Z,16.08
2022-08-07T02:52:39.218Z,16.04
2022-08-07T02:53:39.201Z,15.99
2022-08-07T02:54:39.206Z,15.98
2022-08-07T02:56:02.417Z,15.93
2022-08-07T02:56:39.177Z,15.89
2022-08-07T02:57:39.165Z,15.84
2022-08-07T02:58:39.774Z,15.78
2022-08-07T02:59:39.147Z,15.78
2022-08-07T03:00:39.388Z,15.81
2022-08-07T03:01:39.956Z,15.86
2022-08-07T03:02:54.060Z,15.93
2022-08-07T03:03:49.201Z,15.96
2022-08-07T03:04:39.092Z,15.99
2022-08-07T03:05:39.075Z,16.03
2022-08-07T03:06:39.022Z,16.06
2022-08-07T03:08:04.917Z,16.10
2022-08-07T03:08:39.084Z,16.14
2022-08-07T03:09:43.773Z,16.16
2022-08-07T03:10:40.898Z,16.11
2022-08-07T03:11:52.113Z,16.11
2022-08-07T03:12:38.950Z,16.11
2022-08-07T03:13:49.734Z,16.13
2022-08-07T03:14:38.942Z,16.11
2022-08-07T03:15:55.512Z,16.17
2022-08-07T03:16:38.913Z,16.17
2022-08-07T03:17:53.944Z,16.14
2022-08-07T03:18:38.894Z,16.16
2022-08-07T03:19:38.901Z,16.16
2022-08-07T03:20:38.858Z,16.16
2022-08-07T03:21:38.855Z,16.17
2022-08-07T03:22:38.862Z,16.16
2022-08-07T03:24:21.038Z,16.17
2022-08-07T03:24:38.844Z,16.13
2022-08-07T03:25:40.504Z,16.11
2022-08-07T03:26:43.043Z,16.10
2022-08-07T03:27:59.426Z,16.10
2022-08-07T03:28:39.565Z,16.07
2022-08-07T03:29:38.788Z,16.06
2022-08-07T03:30:38.807Z,16.01
2022-08-07T03:31:43.424Z,16.01
2022-08-07T03:32:38.831Z,15.96
2022-08-07T03:33:40.069Z,15.92
2022-08-07T03:34:39.515Z,15.93
2022-08-07T03:35:49.895Z,15.92
2022-08-07T03:36:38.697Z,15.93
2022-08-07T03:37:46.264Z,15.92
2022-08-07T03:38:38.680Z,15.91
2022-08-07T03:39:59.281Z,15.86
2022-08-07T03:40:38.708Z,15.81
2022-08-07T03:41:42.186Z,15.76
2022-08-07T03:42:38.642Z,15.71
2022-08-07T03:43:38.624Z,15.71
2022-08-07T03:44:38.644Z,15.76
2022-08-07T03:45:39.827Z,15.77
2022-08-07T03:47:13.103Z,15.84
2022-08-07T03:47:47.832Z,15.85
2022-08-07T03:48:45.319Z,15.85
2022-08-07T03:49:38.561Z,15.88
2022-08-07T03:50:38.554Z,15.93
2022-08-07T03:51:47.286Z,15.98
2022-08-07T03:52:38.542Z,16.01
2022-08-07T03:54:05.499Z,16.03
2022-08-07T03:54:54.191Z,16.04
2022-08-07T03:55:58.441Z,16.04
2022-08-07T03:56:38.489Z,16.01
2022-08-07T03:58:32.891Z,16.01
2022-08-07T03:59:08.301Z,16.01
2022-08-07T03:59:46.767Z,16.03
2022-08-07T04:00:38.534Z,16.01
2022-08-07T04:01:38.551Z,15.96
2022-08-07T04:02:41.211Z,15.93
2022-08-07T04:03:49.706Z,15.91
2022-08-07T04:04:38.418Z,15.84
2022-08-07T04:05:40.996Z,15.78
2022-08-07T04:06:38.884Z,15.74
2022-08-07T04:07:42.602Z,15.71
2022-08-07T04:08:38.362Z,15.71
2022-08-07T04:09:45.478Z,15.73
2022-08-07T04:10:38.611Z,15.76
2022-08-07T04:12:27.575Z,15.78
2022-08-07T04:12:38.325Z,15.81
2022-08-07T04:14:10.833Z,15.81
2022-08-07T04:14:47.598Z,15.86
2022-08-07T04:15:38.276Z,15.89
2022-08-07T04:16:38.268Z,15.92
2022-08-07T04:18:11.252Z,15.95
2022-08-07T04:19:04.377Z,16.01
2022-08-07T04:19:52.309Z,16.04
2022-08-07T04:20:38.235Z,16.10
2022-08-07T04:21:38.220Z,16.13
2022-08-07T04:22:38.207Z,16.17
2022-08-07T04:23:43.947Z,16.23
2022-08-07T04:24:39.047Z,16.26
2022-08-07T04:25:39.320Z,16.29
2022-08-07T04:26:38.166Z,16.32
2022-08-07T04:27:44.324Z,16.34
2022-08-07T04:28:38.165Z,16.37
2022-08-07T04:29:58.140Z,16.41
2022-08-07T04:30:44.284Z,16.36
2022-08-07T04:31:38.698Z,16.40
2022-08-07T04:32:38.124Z,16.40
2022-08-07T04:33:38.093Z,16.44
2022-08-07T04:34:39.535Z,16.42
2022-08-07T04:35:38.064Z,16.44
2022-08-07T04:36:38.059Z,16.45
2022-08-07T04:38:00.785Z,16.48
2022-08-07T04:38:38.047Z,16.47
2022-08-07T04:39:38.053Z,16.50
2022-08-07T04:40:51.487Z,16.45
2022-08-07T04:41:38.013Z,16.44
2022-08-07T04:42:38.006Z,16.44
2022-08-07T04:44:09.828Z,16.44
2022-08-07T04:44:54.445Z,16.45
2022-08-07T04:45:52.155Z,16.44
2022-08-07T04:46:59.237Z,16.44
2022-08-07T04:48:01.205Z,16.44
2022-08-07T04:48:37.942Z,16.41
2022-08-07T04:49:38.632Z,16.40
2022-08-07T04:50:37.910Z,16.37
2022-08-07T04:51:37.940Z,16.33
2022-08-07T04:52:37.915Z,16.32
2022-08-07T04:54:00.919Z,16.30
2022-08-07T04:54:37.900Z,16.30
2022-08-07T04:58:12.005Z,16.29
2022-08-07T04:59:16.672Z,16.29
2022-08-07T05:00:12.395Z,16.27
2022-08-07T05:00:31.746Z,16.29
2022-08-07T05:00:44.178Z,16.30
2022-08-07T05:01:44.097Z,16.33
2022-08-07T05:02:44.142Z,16.33
2022-08-07T05:04:06.421Z,16.36
2022-08-07T05:04:47.304Z,16.40
2022-08-07T05:05:52.790Z,16.42
2022-08-07T05:06:51.695Z,16.48
2022-08-07T05:07:48.131Z,16.51
2022-08-07T05:08:58.995Z,16.52
2022-08-07T05:09:46.704Z,16.57
2022-08-07T05:10:43.969Z,16.55
2022-08-07T05:11:57.658Z,16.54
2022-08-07T05:12:46.200Z,16.55
2022-08-07T05:14:52.510Z,16.55
2022-08-07T05:15:03.480Z,16.60
2022-08-07T05:15:43.945Z,16.65
2022-08-07T05:16:45.301Z,16.69
2022-08-07T05:17:51.753Z,16.75
2022-08-07T05:18:43.889Z,16.80
2022-08-07T05:19:44.799Z,16.84
2022-08-07T05:20:43.908Z,16.90
2022-08-07T05:21:58.948Z,16.90
2022-08-07T05:22:43.843Z,16.92
2022-08-07T05:23:43.831Z,16.91
2022-08-07T05:24:43.812Z,16.96
2022-08-07T05:26:11.638Z,16.96
2022-08-07T05:26:46.280Z,17.00
2022-08-07T05:28:03.029Z,16.99
2022-08-07T05:28:46.640Z,17.02
2022-08-07T05:29:51.241Z,17.02
2022-08-07T05:30:43.842Z,17.02
2022-08-07T05:31:47.513Z,17.06
2022-08-07T05:32:43.781Z,17.09
2022-08-07T05:33:59.865Z,17.14
2022-08-07T05:34:43.714Z,17.18
2022-08-07T05:35:43.707Z,17.22
2022-08-07T05:36:43.717Z,17.25
2022-08-07T05:37:43.700Z,17.30
2022-08-07T05:38:59.924Z,17.28
2022-08-07T05:40:14.398Z,17.27
2022-08-07T05:40:51.641Z,17.27
2022-08-07T05:42:02.657Z,17.32
2022-08-07T05:42:55.852Z,17.32
2022-08-07T05:44:07.655Z,17.32
2022-08-07T05:44:52.761Z,17.33
2022-08-07T05:45:46.477Z,17.36
2022-08-07T05:46:43.624Z,17.43
2022-08-07T05:48:01.994Z,17.49
2022-08-07T05:48:59.181Z,17.53
2022-08-07T05:49:43.563Z,17.55
2022-08-07T05:50:43.577Z,17.58
2022-08-07T05:51:43.555Z,17.62
2022-08-07T05:52:43.519Z,17.63
2022-08-07T05:54:13.064Z,17.62
2022-08-07T05:54:53.254Z,17.55
2022-08-07T05:56:03.004Z,17.57
2022-08-07T05:57:53.850Z,17.63
2022-08-07T05:58:54.793Z,17.63
2022-08-07T05:59:57.376Z,17.70
2022-08-07T06:00:54.807Z,17.74
2022-08-07T06:01:54.831Z,17.76
2022-08-07T06:02:54.761Z,17.80
2022-08-07T06:03:58.887Z,17.84
2022-08-07T06:04:54.763Z,17.89
2022-08-07T06:05:56.641Z,17.92
2022-08-07T06:06:56.753Z,17.95
2022-08-07T06:08:13.046Z,17.98
2022-08-07T06:08:54.690Z,18.01
2022-08-07T06:10:05.081Z,18.02
2022-08-07T06:10:55.035Z,18.07
2022-08-07T06:11:54.687Z,18.10
2022-08-07T06:12:54.658Z,18.16
2022-08-07T06:14:12.853Z,18.19
2022-08-07T06:14:54.634Z,18.19
2022-08-07T06:15:54.619Z,18.23
2022-08-07T06:16:56.442Z,18.23
2022-08-07T06:17:55.364Z,18.23
2022-08-07T06:18:56.004Z,18.31
2022-08-07T06:20:03.688Z,18.34
2022-08-07T06:22:15.283Z,18.34
2022-08-07T06:22:27.865Z,18.36
2022-08-07T06:23:02.558Z,18.38
2022-08-07T06:24:45.354Z,18.39
2022-08-07T06:25:01.443Z,18.39
2022-08-07T06:25:57.040Z,18.39
2022-08-07T06:26:54.515Z,18.39
2022-08-07T06:28:01.308Z,18.42
2022-08-07T06:28:54.504Z,18.44
2022-08-07T06:29:54.488Z,18.46
2022-08-07T06:30:54.453Z,18.50
2022-08-07T06:31:54.477Z,18.51
2022-08-07T06:32:54.456Z,18.51
2022-08-07T06:33:54.433Z,18.54
2022-08-07T06:34:54.423Z,18.57
2022-08-07T06:36:12.002Z,18.57
2022-08-07T06:36:54.448Z,18.57
2022-08-07T06:37:54.396Z,18.60
2022-08-07T06:38:59.373Z,18.62
2022-08-07T06:40:21.412Z,18.64
2022-08-07T06:40:54.441Z,18.68
2022-08-07T06:42:01.600Z,18.66
2022-08-07T06:42:54.379Z,18.68
2022-08-07T06:43:59.412Z,18.72
2022-08-07T06:44:54.318Z,18.74
2022-08-07T06:45:58.578Z,18.79
2022-08-07T06:47:10.234Z,18.84
2022-08-07T06:47:57.459Z,18.87
2022-08-07T06:48:54.317Z,18.91
2022-08-07T06:49:58.688Z,18.89
2022-08-07T06:50:54.289Z,18.89
2022-08-07T06:51:59.231Z,18.89
2022-08-07T06:52:55.684Z,18.93
2022-08-07T06:55:28.914Z,18.94
2022-08-07T06:55:53.496Z,18.96
2022-08-07T06:56:07.480Z,19.02
2022-08-07T06:56:54.195Z,19.05
2022-08-07T06:57:57.267Z,19.06
2022-08-07T07:00:13.580Z,19.09
2022-08-07T07:00:22.401Z,19.10
2022-08-07T07:00:54.137Z,19.15
2022-08-07T07:01:54.242Z,19.17
2022-08-07T07:03:00.599Z,19.23
2022-08-07T07:04:05.379Z,19.28
2022-08-07T07:04:55.002Z,19.32
2022-08-07T07:06:04.355Z,19.39
2022-08-07T07:07:00.628Z,19.46
2022-08-07T07:07:59.108Z,19.50
2022-08-07T07:08:54.061Z,19.49
2022-08-07T07:09:54.051Z,19.55
2022-08-07T07:10:56.454Z,19.60
2022-08-07T07:12:08.780Z,19.65
2022-08-07T07:12:54.052Z,19.70
2022-08-07T07:13:58.440Z,19.76
2022-08-07T07:14:54.097Z,19.82
2022-08-07T07:15:54.014Z,19.86
2022-08-07T07:16:54.033Z,19.90
2022-08-07T07:17:54.031Z,19.87
2022-08-07T07:18:53.979Z,19.83
2022-08-07T07:19:57.296Z,19.87
2022-08-07T07:20:53.947Z,19.92
2022-08-07T07:22:04.999Z,19.80
2022-08-07T07:24:11.033Z,19.80
2022-08-07T07:24:17.236Z,19.83
2022-08-07T07:24:56.963Z,19.85
2022-08-07T07:26:34.471Z,19.89
2022-08-07T07:26:53.937Z,19.95
2022-08-07T07:27:58.454Z,20.02
2022-08-07T07:29:38.955Z,20.08
2022-08-07T07:30:09.670Z,20.15
2022-08-07T07:30:53.879Z,20.17
2022-08-07T07:31:53.889Z,20.20
2022-08-07T07:32:53.827Z,20.22
2022-08-07T07:33:57.226Z,20.26
2022-08-07T07:34:53.834Z,20.25
2022-08-07T07:36:04.549Z,20.30
2022-08-07T07:36:54.388Z,20.35
2022-08-07T07:38:02.084Z,20.42
2022-08-07T07:38:53.754Z,20.51
2022-08-07T07:39:54.873Z,20.60
2022-08-07T07:40:53.767Z,20.71
2022-08-07T07:42:09.131Z,20.75
2022-08-07T07:42:54.317Z,20.78
2022-08-07T07:44:17.683Z,20.81
2022-08-07T07:44:53.894Z,20.94
2022-08-07T07:46:37.035Z,21.11
2022-08-07T07:47:09.313Z,21.21
2022-08-07T07:47:53.719Z,21.36
2022-08-07T07:49:00.134Z,21.59
2022-08-07T07:50:35.220Z,21.90
2022-08-07T07:50:53.671Z,22.19
2022-08-07T07:51:58.424Z,22.67
2022-08-07T07:52:53.673Z,23.18
2022-08-07T07:53:53.822Z,23.34
2022-08-07T07:54:53.663Z,23.77
2022-08-07T07:55:54.775Z,24.30
2022-08-07T07:56:53.612Z,24.77
2022-08-07T07:57:58.345Z,25.34
2022-08-07T07:58:54.416Z,25.75
2022-08-07T07:59:54.043Z,26.19
2022-08-07T08:00:54.048Z,26.54
2022-08-07T08:02:03.296Z,26.93
2022-08-07T08:03:04.645Z,27.13
2022-08-07T08:04:09.698Z,27.06
2022-08-07T08:04:53.523Z,27.12
2022-08-07T08:05:54.822Z,27.33
2022-08-07T08:06:53.482Z,27.42
2022-08-07T08:08:00.819Z,27.62
2022-08-07T08:08:53.473Z,28.06
2022-08-07T08:10:04.855Z,28.45
2022-08-07T08:10:53.438Z,28.79
2022-08-07T08:12:02.430Z,29.07
2022-08-07T08:12:59.654Z,29.33
2022-08-07T08:13:55.777Z,29.60
2022-08-07T08:14:53.399Z,29.66
2022-08-07T08:15:58.651Z,29.00
2022-08-07T08:16:53.360Z,28.65
2022-08-07T08:17:57.822Z,28.80
2022-08-07T08:18:54.283Z,29.00
2022-08-07T08:20:17.708Z,29.20
2022-08-07T08:20:54.083Z,28.58
2022-08-07T08:21:59.085Z,28.21
2022-08-07T08:22:56.099Z,28.40
2022-08-07T08:23:53.268Z,28.64
2022-08-07T08:24:57.405Z,28.95
2022-08-07T08:25:54.551Z,29.15
2022-08-07T08:26:53.320Z,29.21
2022-08-07T08:27:56.572Z,29.36
2022-08-07T08:28:53.261Z,29.74
2022-08-07T08:29:55.848Z,29.85
2022-08-07T08:30:55.746Z,29.73
2022-08-07T08:32:17.153Z,29.66
2022-08-07T08:32:53.209Z,29.49
2022-08-07T08:33:55.727Z,28.23
2022-08-07T08:34:53.202Z,27.16
2022-08-07T08:35:53.204Z,26.17
2022-08-07T08:36:56.187Z,25.38
2022-08-07T08:38:01.485Z,24.48
2022-08-07T08:38:53.134Z,23.89
2022-08-07T08:39:55.143Z,23.29
2022-08-07T08:40:53.118Z,22.81
2022-08-07T08:41:57.718Z,22.54
2022-08-07T08:42:53.124Z,22.39
2022-08-07T08:43:56.224Z,22.35
2022-08-07T08:44:53.105Z,22.19
2022-08-07T08:46:00.643Z,22.19
2022-08-07T08:46:53.078Z,22.20
2022-08-07T08:47:54.728Z,22.21
2022-08-07T08:48:53.038Z,22.27
2022-08-07T08:50:04.855Z,22.31
2022-08-07T08:50:53.134Z,22.33
2022-08-07T08:52:12.841Z,22.36
2022-08-07T08:52:54.322Z,22.41
2022-08-07T08:53:53.002Z,22.44
2022-08-07T08:54:52.983Z,22.44
2022-08-07T08:55:58.301Z,22.46
2022-08-07T08:56:52.997Z,22.49
2022-08-07T08:57:52.979Z,22.52
2022-08-07T08:58:54.519Z,22.59
2022-08-07T08:59:53.026Z,22.59
2022-08-07T09:00:52.988Z,22.61
2022-08-07T09:01:52.972Z,22.60
2022-08-07T09:02:53.178Z,22.61
2022-08-07T09:03:53.157Z,22.61
2022-08-07T09:04:52.890Z,22.66
2022-08-07T09:05:53.020Z,22.67
2022-08-07T09:06:52.897Z,22.69
2022-08-07T09:07:58.260Z,22.64
2022-08-07T09:08:52.850Z,22.64
2022-08-07T09:09:57.092Z,22.64
2022-08-07T09:10:52.865Z,22.61
2022-08-07T09:11:55.459Z,22.54
2022-08-07T09:12:53.149Z,22.49
2022-08-07T09:13:52.794Z,22.48
2022-08-07T09:14:58.961Z,22.41
2022-08-07T09:16:22.154Z,22.35
2022-08-07T09:16:52.766Z,22.31
2022-08-07T09:17:59.708Z,22.31
2022-08-07T09:18:53.280Z,22.26
2022-08-07T09:19:55.420Z,22.27
2022-08-07T09:20:57.922Z,22.27
2022-08-07T09:22:09.894Z,22.31
2022-08-07T09:24:58.436Z,22.38
2022-08-07T09:25:11.858Z,22.39
2022-08-07T09:25:41.662Z,22.39
2022-08-07T09:26:41.608Z,22.46
2022-08-07T09:27:59.660Z,22.52
2022-08-07T09:30:06.561Z,22.61
2022-08-07T09:30:12.543Z,22.66
2022-08-07T09:30:41.628Z,22.78
2022-08-07T09:31:49.152Z,22.94
2022-08-07T09:32:41.570Z,23.01
2022-08-07T09:33:56.916Z,22.99
2022-08-07T09:34:41.576Z,22.93
2022-08-07T09:36:03.202Z,22.82
2022-08-07T09:36:42.803Z,22.72
2022-08-07T09:37:53.381Z,22.72
2022-08-07T09:38:41.507Z,22.70
2022-08-07T09:39:55.249Z,22.76
2022-08-07T09:40:41.530Z,22.96
2022-08-07T09:41:58.527Z,23.16
2022-08-07T09:42:41.469Z,23.42
2022-08-07T09:44:10.233Z,23.62
2022-08-07T09:47:24.105Z,23.57
2022-08-07T09:48:01.866Z,23.29
2022-08-07T09:48:11.626Z,23.12
2022-08-07T09:50:01.836Z,23.09
2022-08-07T09:50:23.353Z,23.07
2022-08-07T09:51:26.098Z,23.04
2022-08-07T09:52:34.286Z,22.91
2022-08-07T09:53:05.529Z,22.76
2022-08-07T09:54:05.508Z,22.46
2022-08-07T09:55:05.518Z,22.35
2022-08-07T09:56:05.545Z,22.31
2022-08-07T09:57:05.485Z,22.27
2022-08-07T09:58:05.469Z,22.27
2022-08-07T09:59:07.760Z,22.26
2022-08-07T10:00:05.484Z,22.29
2022-08-07T10:01:08.501Z,22.35
2022-08-07T10:02:05.434Z,22.41
2022-08-07T10:03:08.144Z,22.44
2022-08-07T10:04:14.202Z,22.46
2022-08-07T10:05:12.393Z,22.54
2022-08-07T10:06:12.088Z,22.59
2022-08-07T10:07:05.390Z,22.63
2022-08-07T10:08:05.373Z,22.57
2022-08-07T10:09:05.367Z,22.59
2022-08-07T10:10:05.364Z,22.61
2022-08-07T10:11:16.753Z,22.60
2022-08-07T10:12:15.402Z,22.63
2022-08-07T10:13:05.316Z,22.67
2022-08-07T10:14:05.337Z,22.70
2022-08-07T10:15:05.353Z,22.78
2022-08-07T10:16:05.323Z,22.76
2022-08-07T10:17:14.318Z,22.75
2022-08-07T10:18:05.266Z,22.79
2022-08-07T10:19:05.253Z,22.74
2022-08-07T10:20:05.265Z,22.78
2022-08-07T10:21:05.224Z,22.81
2022-08-07T10:22:15.506Z,22.84
2022-08-07T10:23:05.822Z,22.88
2022-08-07T10:24:08.366Z,22.91
2022-08-07T10:25:05.202Z,22.89
2022-08-07T10:26:05.177Z,22.91
2022-08-07T10:27:06.661Z,22.89
2022-08-07T10:28:05.164Z,22.78
2022-08-07T10:29:05.148Z,22.81
2022-08-07T10:30:06.303Z,22.82
2022-08-07T10:31:06.110Z,22.84
2022-08-07T10:32:05.117Z,22.82
2022-08-07T10:33:05.103Z,22.75
2022-08-07T10:34:17.878Z,22.64
2022-08-07T10:35:09.137Z,22.56
2022-08-07T10:36:11.469Z,22.44
2022-08-07T10:37:05.069Z,22.35
2022-08-07T10:38:20.923Z,22.23
2022-08-07T10:39:05.529Z,22.17
2022-08-07T10:40:06.026Z,22.15
2022-08-07T10:41:05.016Z,22.17
2022-08-07T10:42:20.973Z,22.17
2022-08-07T10:43:05.004Z,22.17
2022-08-07T10:44:07.487Z,22.17
2022-08-07T10:45:05.759Z,22.19
2022-08-07T10:46:04.966Z,22.19
2022-08-07T10:47:05.793Z,22.20
2022-08-07T10:48:05.249Z,22.19
2022-08-07T10:49:04.930Z,22.21
2022-08-07T10:50:04.952Z,22.24
2022-08-07T10:51:04.923Z,22.21
2022-08-07T10:52:13.273Z,22.15
2022-08-07T10:53:08.088Z,22.11
2022-08-07T10:54:04.882Z,22.09
2022-08-07T10:55:20.845Z,22.12
2022-08-07T10:56:05.046Z,22.12
2022-08-07T10:57:04.852Z,22.12
2022-08-07T10:58:04.990Z,22.09
2022-08-07T10:59:04.827Z,22.14
2022-08-07T11:00:04.846Z,22.30
2022-08-07T11:01:11.428Z,22.45
2022-08-07T11:02:12.335Z,22.67
2022-08-07T11:03:04.854Z,22.94
2022-08-07T11:04:16.764Z,23.26
2022-08-07T11:05:10.462Z,23.54
2022-08-07T11:06:05.086Z,23.75
2022-08-07T11:07:04.746Z,23.96
2022-08-07T11:08:05.075Z,24.09
2022-08-07T11:09:11.037Z,23.97
2022-08-07T11:10:08.532Z,23.92
2022-08-07T11:11:04.706Z,23.79
2022-08-07T11:12:04.697Z,23.67
2022-08-07T11:13:04.721Z,23.57
2022-08-07T11:14:57.343Z,23.42
2022-08-07T11:15:14.504Z,23.41
2022-08-07T11:16:07.148Z,23.38
2022-08-07T11:17:07.347Z,23.38
2022-08-07T11:18:04.718Z,23.39
2022-08-07T11:19:04.627Z,23.41
2022-08-07T11:20:04.641Z,23.34
2022-08-07T11:21:04.616Z,23.35
2022-08-07T11:22:04.596Z,23.37
2022-08-07T11:23:04.577Z,23.34
2022-08-07T11:24:04.567Z,23.32
2022-08-07T11:25:06.861Z,23.34
2022-08-07T11:26:06.027Z,23.34
2022-08-07T11:27:04.543Z,23.25
2022-08-07T11:28:04.866Z,23.26
2022-08-07T11:29:05.738Z,23.21
2022-08-07T11:30:18.736Z,23.06
2022-08-07T11:31:11.285Z,23.07
2022-08-07T11:32:04.489Z,23.14
2022-08-07T11:33:08.082Z,23.11
2022-08-07T11:34:04.473Z,23.15
2022-08-07T11:35:04.466Z,23.21
2022-08-07T11:36:08.379Z,23.25
2022-08-07T11:37:04.430Z,23.26
2022-08-07T11:38:10.237Z,23.32
2022-08-07T11:39:04.469Z,23.35
2022-08-07T11:40:04.490Z,23.41
2022-08-07T11:41:04.391Z,23.45
2022-08-07T11:42:04.380Z,23.50
2022-08-07T11:43:04.390Z,23.49
2022-08-07T11:44:12.755Z,23.53
2022-08-07T11:45:04.418Z,23.56
2022-08-07T11:46:04.417Z,23.67
2022-08-07T11:47:04.369Z,23.75
2022-08-07T11:48:14.034Z,23.82
2022-08-07T11:49:28.741Z,23.87
2022-08-07T11:50:32.003Z,23.90
2022-08-07T11:51:04.313Z,23.84
2022-08-07T11:52:04.275Z,23.82
2022-08-07T11:53:04.970Z,23.86
2022-08-07T11:54:09.723Z,23.90
2022-08-07T11:55:12.887Z,23.94
2022-08-07T11:56:09.620Z,23.99
2022-08-07T11:57:04.222Z,24.00
2022-08-07T11:58:16.285Z,24.05
2022-08-07T11:59:04.198Z,24.09
2022-08-07T12:00:19.612Z,24.16
2022-08-07T12:01:05.163Z,24.18
2022-08-07T12:02:04.198Z,24.24
2022-08-07T12:03:04.227Z,24.26
2022-08-07T12:04:04.146Z,24.30
2022-08-07T12:05:04.148Z,24.29
2022-08-07T12:06:36.898Z,24.30
2022-08-07T12:07:09.136Z,24.24
2022-08-07T12:08:04.370Z,24.15
2022-08-07T12:09:04.093Z,24.16
2022-08-07T12:10:05.933Z,24.11
2022-08-07T12:11:20.206Z,24.00
2022-08-07T12:12:08.841Z,23.92
2022-08-07T12:13:04.057Z,23.75
2022-08-07T12:14:04.043Z,23.68
2022-08-07T12:15:04.043Z,23.67
2022-08-07T12:16:06.890Z,23.67
2022-08-07T12:17:04.238Z,23.67
2022-08-07T12:18:08.267Z,23.69
2022-08-07T12:19:03.994Z,23.68
2022-08-07T12:20:10.330Z,23.64
2022-08-07T12:21:03.973Z,23.63
2022-08-07T12:22:37.852Z,23.57
2022-08-07T12:23:09.084Z,23.49
2022-08-07T12:24:06.021Z,23.45
2022-08-07T12:25:07.728Z,23.44
2022-08-07T12:26:22.853Z,23.44
2022-08-07T12:27:03.911Z,23.44
2022-08-07T12:28:08.457Z,23.42
2022-08-07T12:29:03.890Z,23.42
2022-08-07T12:30:03.893Z,23.39
2022-08-07T12:31:03.861Z,23.42
2022-08-07T12:32:04.820Z,23.39
2022-08-07T12:33:18.950Z,23.38
2022-08-07T12:34:04.097Z,23.37
2022-08-07T12:35:05.578Z,23.35
2022-08-07T12:36:03.806Z,23.44
2022-08-07T12:37:08.155Z,23.49
2022-08-07T12:38:10.234Z,23.74
2022-08-07T12:39:09.549Z,24.05
2022-08-07T12:40:03.832Z,24.09
2022-08-07T12:41:03.871Z,24.59
2022-08-07T12:42:03.750Z,24.93
2022-08-07T12:43:03.748Z,25.61
2022-08-07T12:44:05.598Z,26.16
2022-08-07T12:45:04.351Z,26.53
2022-08-07T12:46:03.699Z,26.75
2022-08-07T12:47:03.696Z,26.88
2022-08-07T12:48:03.687Z,26.87
2022-08-07T12:49:10.188Z,26.72
2022-08-07T12:50:05.000Z,25.85
2022-08-07T12:51:12.839Z,25.41
2022-08-07T12:52:13.952Z,25.02
2022-08-07T12:53:05.365Z,24.74
2022-08-07T12:54:36.816Z,24.49
2022-08-07T12:55:09.391Z,24.37
2022-08-07T12:56:04.202Z,24.26
2022-08-07T12:57:09.470Z,24.21